createdAt,value
2022-08-24T00:01:36.593Z,1.35
2022-08-24T00:04:13.751Z,1.35
2022-08-24T00:06:47.974Z,1.50
2022-08-24T00:09:19.819Z,1.40
2022-08-24T00:11:50.303Z,1.40
2022-08-24T00:14:19.269Z,1.42
2022-08-24T00:16:49.734Z,1.42
2022-08-24T00:19:17.348Z,1.20
2022-08-24T00:21:54.257Z,1.55
2022-08-24T00:24:25.897Z,1.40
2022-08-24T00:26:56.402Z,1.48
2022-08-24T00:29:26.319Z,1.50
2022-08-24T00:31:57.826Z,1.60
2022-08-24T00:34:28.677Z,1.35
2022-08-24T00:36:58.824Z,1.52
2022-08-24T00:39:27.194Z,1.40
2022-08-24T00:41:55.324Z,1.63
2022-08-24T00:44:25.720Z,1.70
2022-08-24T00:47:25.640Z,1.58
2022-08-24T00:50:12.059Z,1.60
2022-08-24T00:52:53.577Z,1.60
2022-08-24T00:55:28.469Z,1.48
2022-08-24T00:58:17.107Z,1.50
2022-08-24T01:01:04.705Z,1.42
2022-08-24T01:03:42.002Z,1.48
2022-08-24T01:06:30.037Z,1.80
2022-08-24T01:09:00.536Z,1.50
2022-08-24T01:11:40.608Z,1.70
2022-08-24T01:14:13.880Z,1.77
2022-08-24T01:17:04.688Z,1.60
2022-08-24T01:19:53.303Z,1.55
2022-08-24T01:22:48.977Z,1.58
2022-08-24T01:25:27.299Z,1.45
2022-08-24T01:28:05.555Z,1.45
2022-08-24T01:30:36.377Z,1.40
2022-08-24T01:33:09.778Z,1.40
2022-08-24T01:35:39.572Z,1.45
2022-08-24T01:38:12.012Z,1.48
2022-08-24T01:40:46.639Z,1.40
2022-08-24T01:43:15.260Z,1.50
2022-08-24T01:45:43.201Z,1.50
2022-08-24T01:48:10.727Z,1.50
2022-08-24T01:50:37.800Z,1.73
2022-08-24T01:53:06.510Z,1.45
2022-08-24T01:55:34.656Z,1.50
2022-08-24T01:58:02.798Z,1.60
2022-08-24T02:00:30.700Z,1.60
2022-08-24T02:02:58.104Z,1.42
2022-08-24T02:05:25.936Z,1.63
2022-08-24T02:07:53.381Z,1.50
2022-08-24T02:10:21.099Z,1.53
2022-08-24T02:12:58.775Z,1.85
2022-08-24T02:15:27.661Z,1.70
2022-08-24T02:17:55.462Z,1.70
2022-08-24T02:20:23.603Z,1.80
2022-08-24T02:22:53.126Z,2.20
2022-08-24T02:25:21.197Z,1.73
2022-08-24T02:27:48.439Z,2.10
2022-08-24T02:30:15.944Z,2.67
2022-08-24T02:32:43.142Z,2.23
2022-08-24T02:35:11.492Z,2.00
2022-08-24T02:37:43.500Z,2.37
2022-08-24T02:40:12.688Z,2.70
2022-08-24T02:42:40.658Z,2.57
2022-08-24T02:45:08.818Z,2.20
2022-08-24T02:47:38.928Z,2.47
2022-08-24T02:50:09.312Z,2.50
2022-08-24T02:52:41.611Z,2.00
2022-08-24T02:55:12.396Z,2.60
2022-08-24T02:57:40.063Z,2.43
2022-08-24T03:00:11.716Z,2.40
2022-08-24T03:02:40.409Z,2.37
2022-08-24T03:05:10.427Z,3.10
2022-08-24T03:07:38.322Z,2.30
2022-08-24T03:10:06.577Z,2.40
2022-08-24T03:12:34.945Z,2.00
2022-08-24T03:15:04.347Z,2.00
2022-08-24T03:17:33.754Z,2.37
2022-08-24T03:20:02.294Z,2.45
2022-08-24T03:22:30.512Z,2.37
2022-08-24T03:24:57.962Z,2.40
2022-08-24T03:27:25.542Z,2.20
2022-08-24T03:29:52.828Z,2.22
2022-08-24T03:32:19.931Z,2.03
2022-08-24T03:34:47.102Z,1.97
2022-08-24T03:37:14.167Z,2.15
2022-08-24T03:39:41.242Z,1.80
2022-08-24T03:42:08.465Z,2.10
2022-08-24T03:44:35.583Z,2.47
2022-08-24T03:47:02.622Z,2.37
2022-08-24T03:49:29.807Z,2.10
2022-08-24T03:51:56.858Z,2.20
2022-08-24T03:54:23.942Z,1.70
2022-08-24T03:56:50.976Z,1.50
2022-08-24T03:59:20.083Z,1.70
2022-08-24T04:01:47.327Z,1.70
2022-08-24T04:04:14.482Z,1.80
2022-08-24T04:06:44.661Z,1.67
2022-08-24T04:09:12.162Z,1.67
2022-08-24T04:11:41.461Z,1.60
2022-08-24T04:14:08.892Z,1.50
2022-08-24T04:16:57.619Z,1.40
2022-08-24T04:19:25.837Z,1.45
2022-08-24T04:21:53.418Z,1.50
2022-08-24T04:24:20.886Z,1.60
2022-08-24T04:26:48.057Z,1.77
2022-08-24T04:29:18.736Z,1.67
2022-08-24T04:31:46.025Z,1.77
2022-08-24T04:34:17.598Z,1.63
2022-08-24T04:36:46.324Z,2.00
2022-08-24T04:39:13.804Z,1.90
2022-08-24T04:41:42.803Z,1.73
2022-08-24T04:44:10.036Z,1.77
2022-08-24T04:46:37.195Z,1.90
2022-08-24T04:49:04.821Z,1.80
2022-08-24T04:51:36.677Z,1.70
2022-08-24T04:54:05.490Z,1.70
2022-08-24T04:56:44.862Z,1.90
2022-08-24T04:59:11.971Z,1.90
2022-08-24T05:01:42.984Z,1.97
2022-08-24T05:04:10.204Z,1.90
2022-08-24T05:06:37.611Z,2.20
2022-08-24T05:09:05.741Z,1.90
2022-08-24T05:11:33.498Z,1.60
2022-08-24T05:14:00.577Z,1.70
2022-08-24T05:16:28.133Z,1.90
2022-08-24T05:18:57.612Z,2.05
2022-08-24T05:21:26.316Z,1.80
2022-08-24T05:23:53.421Z,1.98
2022-08-24T05:26:26.758Z,1.77
2022-08-24T05:28:59.281Z,1.90
2022-08-24T05:31:28.895Z,1.95
2022-08-24T05:33:56.067Z,1.48
2022-08-24T05:36:25.997Z,1.98
2022-08-24T05:38:55.887Z,2.10
2022-08-24T05:41:24.042Z,2.05
2022-08-24T05:43:52.576Z,2.13
2022-08-24T05:46:20.539Z,1.60
2022-08-24T05:48:52.595Z,2.00
2022-08-24T05:51:48.283Z,1.90
2022-08-24T05:54:15.321Z,1.83
2022-08-24T05:56:45.701Z,1.90
2022-08-24T05:59:13.703Z,2.10
2022-08-24T06:01:45.298Z,1.70
2022-08-24T06:04:13.044Z,2.00
2022-08-24T06:06:40.168Z,2.03
2022-08-24T06:09:07.506Z,2.03
2022-08-24T06:11:40.297Z,2.20
2022-08-24T06:14:12.039Z,2.10
2022-08-24T06:16:42.997Z,2.10
2022-08-24T06:19:13.677Z,2.10
2022-08-24T06:21:42.128Z,1.90
2022-08-24T06:24:09.457Z,2.20
2022-08-24T06:26:55.359Z,1.85
2022-08-24T06:29:22.597Z,2.03
2022-08-24T06:31:54.358Z,1.80
2022-08-24T06:34:24.016Z,1.80
2022-08-24T06:36:51.082Z,1.80
2022-08-24T06:39:18.982Z,2.00
2022-08-24T06:41:46.247Z,1.60
2022-08-24T06:44:13.342Z,1.83
2022-08-24T06:46:40.658Z,1.92
2022-08-24T06:49:08.100Z,1.73
2022-08-24T06:51:35.612Z,2.17
2022-08-24T06:54:02.728Z,2.08
2022-08-24T06:56:29.843Z,2.20
2022-08-24T06:58:57.122Z,1.80
2022-08-24T07:01:28.538Z,1.90
2022-08-24T07:03:56.542Z,2.08
2022-08-24T07:06:24.960Z,1.80
2022-08-24T07:08:53.102Z,2.00
2022-08-24T07:11:20.952Z,1.88
2022-08-24T07:13:49.112Z,1.85
2022-08-24T07:16:18.748Z,1.90
2022-08-24T07:18:49.937Z,1.67
2022-08-24T07:21:21.082Z,1.90
2022-08-24T07:23:56.107Z,1.83
2022-08-24T07:26:25.743Z,1.70
2022-08-24T07:28:54.842Z,1.80
2022-08-24T07:31:22.212Z,1.80
2022-08-24T07:33:49.366Z,1.88
2022-08-24T07:36:22.085Z,2.00
2022-08-24T07:38:53.732Z,1.70
2022-08-24T07:41:51.548Z,1.90
2022-08-24T07:44:11.322Z,2.03
2022-08-24T07:46:39.884Z,1.80
2022-08-24T07:49:28.051Z,1.73
2022-08-24T07:51:55.240Z,1.95
2022-08-24T07:54:22.402Z,2.35
2022-08-24T07:56:50.477Z,1.75
2022-08-24T07:59:18.155Z,1.67
2022-08-24T08:01:45.521Z,1.50
2022-08-24T08:04:14.342Z,1.70
2022-08-24T08:06:44.593Z,1.90
2022-08-24T08:09:11.822Z,1.67
2022-08-24T08:11:39.023Z,1.50
2022-08-24T08:14:06.183Z,1.60
2022-08-24T08:16:33.385Z,1.55
2022-08-24T08:19:09.892Z,1.58
2022-08-24T08:22:08.873Z,1.70
2022-08-24T08:24:38.537Z,1.75
2022-08-24T08:27:06.342Z,1.50
2022-08-24T08:29:34.963Z,1.65
2022-08-24T08:32:02.479Z,1.80
2022-08-24T08:34:31.588Z,2.10
2022-08-24T08:36:59.649Z,1.67
2022-08-24T08:39:27.654Z,1.50
2022-08-24T08:42:08.812Z,1.63
2022-08-24T08:45:12.407Z,1.65
2022-08-24T08:48:43.712Z,1.58
2022-08-24T08:51:44.200Z,1.50
2022-08-24T08:54:30.521Z,1.70
2022-08-24T08:57:27.022Z,1.60
2022-08-24T09:00:17.625Z,1.33
2022-08-24T09:03:08.437Z,1.35
2022-08-24T09:05:44.847Z,1.40
2022-08-24T09:08:27.793Z,1.40
2022-08-24T09:11:11.469Z,1.20
2022-08-24T09:13:59.797Z,1.48
2022-08-24T09:16:32.554Z,1.40
2022-08-24T09:19:20.279Z,1.25
2022-08-24T09:22:01.292Z,1.50
2022-08-24T09:24:50.477Z,1.38
2022-08-24T09:27:36.441Z,1.33
2022-08-24T09:30:16.642Z,1.42
2022-08-24T09:33:07.929Z,1.33
2022-08-24T09:35:59.432Z,1.40
2022-08-24T09:38:48.073Z,1.50
2022-08-24T09:41:42.186Z,1.50
2022-08-24T09:45:04.317Z,1.50
2022-08-24T09:48:00.337Z,1.50
2022-08-24T09:50:50.436Z,1.75
2022-08-24T09:53:59.902Z,1.50
2022-08-24T09:57:18.299Z,1.50
2022-08-24T10:00:27.970Z,1.50
2022-08-24T10:03:36.463Z,1.45
2022-08-24T10:06:29.092Z,1.50
2022-08-24T10:09:40.205Z,1.70
2022-08-24T10:12:26.200Z,2.20
2022-08-24T10:15:16.877Z,2.00
2022-08-24T10:18:35.084Z,1.70
2022-08-24T10:21:09.139Z,1.50
2022-08-24T10:24:24.708Z,1.88
2022-08-24T10:27:13.842Z,1.65
2022-08-24T10:30:27.808Z,2.20
2022-08-24T10:33:33.722Z,1.90
2022-08-24T10:36:42.476Z,1.80
2022-08-24T10:39:47.695Z,1.55
2022-08-24T10:42:57.697Z,1.80
2022-08-24T10:45:57.788Z,2.00
2022-08-24T10:48:34.744Z,1.90
2022-08-24T10:51:47.776Z,1.98
2022-08-24T10:54:20.240Z,1.80
2022-08-24T10:57:45.713Z,1.70
2022-08-24T11:00:23.459Z,1.83
2022-08-24T11:03:27.922Z,2.00
2022-08-24T11:06:00.722Z,1.90
2022-08-24T11:08:35.051Z,1.73
2022-08-24T11:11:19.220Z,1.70
2022-08-24T11:14:33.844Z,1.90
2022-08-24T11:17:29.286Z,2.10
2022-08-24T11:20:00.666Z,1.70
2022-08-24T11:23:30.992Z,1.85
2022-08-24T11:26:21.396Z,2.30
2022-08-24T11:29:10.173Z,2.15
2022-08-24T11:31:44.606Z,2.08
2022-08-24T11:34:29.996Z,2.17
2022-08-24T11:37:05.990Z,18.73
2022-08-24T11:39:47.640Z,2.00
2022-08-24T11:42:42.574Z,2.15
2022-08-24T11:45:37.951Z,1.90
2022-08-24T11:48:39.799Z,2.00
2022-08-24T11:51:24.226Z,1.92
2022-08-24T11:54:30.377Z,2.28
2022-08-24T11:57:37.891Z,1.83
2022-08-24T12:00:29.477Z,2.10
2022-08-24T12:03:28.639Z,1.98
2022-08-24T12:06:44.703Z,2.05
2022-08-24T12:09:14.236Z,2.00
2022-08-24T12:12:30.887Z,1.98
2022-08-24T12:15:23.391Z,2.20
2022-08-24T12:18:20.116Z,1.98
2022-08-24T12:20:49.962Z,2.10
2022-08-24T12:23:38.918Z,2.17
2022-08-24T12:26:23.513Z,1.92
2022-08-24T12:28:55.241Z,2.08
2022-08-24T12:31:52.067Z,2.05
2022-08-24T12:35:01.671Z,2.20
2022-08-24T12:38:00.841Z,1.92
2022-08-24T12:40:47.376Z,2.22
2022-08-24T12:43:49.804Z,2.35
2022-08-24T12:46:26.908Z,2.15
2022-08-24T12:49:07.827Z,2.38
2022-08-24T12:51:53.802Z,2.13
2022-08-24T12:54:34.942Z,2.10
2022-08-24T12:57:31.866Z,2.28
2022-08-24T13:00:10.886Z,2.00
2022-08-24T13:02:50.451Z,2.00
2022-08-24T13:05:20.979Z,2.10
2022-08-24T13:07:58.221Z,2.50
2022-08-24T13:10:39.382Z,2.40
2022-08-24T13:13:18.176Z,2.13
2022-08-24T13:15:55.818Z,2.42
2022-08-24T13:18:50.588Z,2.60
2022-08-24T13:21:49.762Z,2.53
2022-08-24T13:24:52.805Z,2.53
2022-08-24T13:27:45.789Z,2.47
2022-08-24T13:30:36.362Z,2.40
2022-08-24T13:33:11.686Z,2.30
2022-08-24T13:35:50.658Z,2.80
2022-08-24T13:38:38.842Z,2.90
2022-08-24T13:42:01.394Z,2.67
2022-08-24T13:45:05.922Z,3.22
2022-08-24T13:48:12.527Z,2.83
2022-08-24T13:51:31.796Z,2.97
2022-08-24T13:54:36.321Z,3.13
2022-08-24T13:57:45.791Z,2.80
2022-08-24T14:01:02.196Z,2.80
2022-08-24T14:07:05.084Z,3.35
2022-08-24T14:10:09.283Z,2.95
2022-08-24T14:13:24.531Z,3.20
2022-08-24T14:16:47.527Z,2.90
2022-08-24T14:19:46.622Z,3.20
2022-08-24T14:22:22.129Z,2.95
2022-08-24T14:25:22.129Z,3.08
2022-08-24T14:28:34.402Z,3.53
2022-08-24T14:31:30.840Z,3.10
2022-08-24T14:34:41.068Z,3.42
2022-08-24T14:37:56.122Z,3.28
2022-08-24T14:41:04.070Z,3.10
2022-08-24T14:44:12.419Z,2.97
2022-08-24T14:47:30.263Z,3.33
2022-08-24T14:50:30.662Z,3.55
2022-08-24T14:53:26.598Z,3.90
2022-08-24T14:56:20.952Z,3.53
2022-08-24T14:59:27.049Z,3.75
2022-08-24T15:02:40.378Z,3.83
2022-08-24T15:05:32.597Z,3.95
2022-08-24T15:08:18.182Z,4.13
2022-08-24T15:11:15.469Z,3.85
2022-08-24T15:14:39.964Z,3.47
2022-08-24T15:17:20.482Z,3.35
2022-08-24T15:20:18.152Z,3.88
2022-08-24T15:22:57.822Z,3.47
2022-08-24T15:26:11.168Z,3.60
2022-08-24T15:28:55.256Z,3.70
2022-08-24T15:31:36.623Z,3.45
2022-08-24T15:34:13.493Z,4.00
2022-08-24T15:36:41.773Z,3.60
2022-08-24T15:39:38.664Z,3.83
2022-08-24T15:42:14.393Z,3.50
2022-08-24T15:44:49.790Z,3.92
2022-08-24T15:47:36.667Z,4.20
2022-08-24T15:50:23.337Z,4.10
2022-08-24T15:53:23.881Z,3.60
2022-08-24T15:55:53.427Z,3.75
2022-08-24T15:58:41.442Z,3.83
2022-08-24T16:01:53.877Z,3.90
2022-08-24T16:04:48.957Z,4.03
2022-08-24T16:07:26.480Z,3.95
2022-08-24T16:10:13.738Z,3.58
2022-08-24T16:12:44.132Z,3.60
2022-08-24T16:15:25.408Z,3.45
2022-08-24T16:18:00.392Z,4.03
2022-08-24T16:20:37.212Z,4.00
2022-08-24T16:23:10.252Z,3.80
2022-08-24T16:25:47.990Z,3.75
2022-08-24T16:28:32.957Z,3.92
2022-08-24T16:31:17.029Z,3.92
2022-08-24T16:33:50.513Z,3.90
2022-08-24T16:36:22.655Z,4.30
2022-08-24T16:38:54.237Z,3.90
2022-08-24T16:41:26.282Z,3.78
2022-08-24T16:44:03.017Z,4.30
2022-08-24T16:46:30.678Z,4.50
2022-08-24T16:48:57.873Z,3.90
2022-08-24T16:51:26.758Z,4.13
2022-08-24T16:53:56.572Z,3.90
2022-08-24T16:56:26.213Z,3.80
2022-08-24T16:58:56.589Z,4.13
2022-08-24T17:01:25.869Z,3.95
2022-08-24T17:03:55.519Z,4.32
2022-08-24T17:06:33.602Z,4.43
2022-08-24T17:09:24.837Z,4.72
2022-08-24T17:11:57.517Z,3.92
2022-08-24T17:14:34.815Z,3.95
2022-08-24T17:17:06.412Z,4.35
2022-08-24T17:19:37.566Z,4.32
2022-08-24T17:22:06.813Z,3.95
2022-08-24T17:24:37.102Z,3.92
2022-08-24T17:27:05.157Z,3.80
2022-08-24T17:29:35.797Z,3.95
2022-08-24T17:32:06.099Z,4.55
2022-08-24T17:34:34.962Z,3.92
2022-08-24T17:37:12.919Z,4.43
2022-08-24T17:39:41.097Z,4.05
2022-08-24T17:42:33.702Z,4.28
2022-08-24T17:45:11.490Z,4.30
2022-08-24T17:47:43.710Z,4.05
2022-08-24T17:50:13.977Z,4.18
2022-08-24T17:52:44.283Z,4.72
2022-08-24T17:55:24.044Z,4.80
2022-08-24T17:57:57.292Z,4.78
2022-08-24T18:00:26.063Z,5.03
2022-08-24T18:02:54.928Z,4.78
2022-08-24T18:05:24.644Z,4.57
2022-08-24T18:07:54.923Z,4.47
2022-08-24T18:10:33.332Z,4.65
2022-08-24T18:13:04.715Z,4.88
2022-08-24T18:15:40.258Z,5.00
2022-08-24T18:18:16.473Z,5.20
2022-08-24T18:20:52.793Z,5.25
2022-08-24T18:23:24.714Z,5.43
2022-08-24T18:26:02.312Z,5.10
2022-08-24T18:28:42.300Z,5.68
2022-08-24T18:31:15.289Z,5.60
2022-08-24T18:33:46.769Z,5.28
2022-08-24T18:36:17.973Z,6.18
2022-08-24T18:38:46.718Z,6.05
2022-08-24T18:41:22.991Z,5.45
2022-08-24T18:43:50.096Z,5.25
2022-08-24T18:46:29.783Z,4.78
2022-08-24T18:49:08.393Z,4.80
2022-08-24T18:51:37.713Z,5.38
2022-08-24T18:54:13.156Z,5.22
2022-08-24T18:56:49.078Z,5.45
2022-08-24T18:59:19.976Z,4.85
2022-08-24T19:02:12.961Z,4.97
2022-08-24T19:04:50.579Z,5.13
2022-08-24T19:07:22.227Z,5.00
2022-08-24T19:09:54.839Z,5.15
2022-08-24T19:12:25.769Z,4.68
2022-08-24T19:15:05.824Z,5.13
2022-08-24T19:17:34.348Z,5.00
2022-08-24T19:20:03.038Z,4.68
2022-08-24T19:22:40.117Z,4.68
2022-08-24T19:25:22.334Z,5.15
2022-08-24T19:27:53.792Z,4.53
2022-08-24T19:30:22.941Z,4.85
2022-08-24T19:32:51.275Z,4.72
2022-08-24T19:35:22.786Z,5.05
2022-08-24T19:38:00.263Z,5.00
2022-08-24T19:40:27.976Z,5.05
2022-08-24T19:43:03.943Z,5.18
2022-08-24T19:45:53.259Z,5.90
2022-08-24T19:48:26.673Z,5.50
2022-08-24T19:51:03.131Z,5.13
2022-08-24T19:53:35.763Z,5.65
2022-08-24T19:56:07.062Z,5.30
2022-08-24T19:58:53.813Z,5.90
2022-08-24T20:01:40.350Z,6.47
2022-08-24T20:04:08.989Z,6.55
2022-08-24T20:06:39.138Z,6.75
2022-08-24T20:09:14.564Z,5.95
2022-08-24T20:11:43.115Z,6.70
2022-08-24T20:14:18.999Z,5.70
2022-08-24T20:16:47.876Z,5.47
2022-08-24T20:19:19.085Z,5.55
2022-08-24T20:21:48.394Z,5.40
2022-08-24T20:24:18.234Z,4.50
2022-08-24T20:26:47.418Z,4.85
2022-08-24T20:29:17.668Z,5.22
2022-08-24T20:31:52.932Z,6.13
2022-08-24T20:34:33.043Z,6.30
2022-08-24T20:37:03.424Z,6.13
2022-08-24T20:39:34.311Z,5.85
2022-08-24T20:42:03.419Z,6.53
2022-08-24T20:44:32.539Z,6.38
2022-08-24T20:47:05.397Z,5.63
2022-08-24T20:49:34.285Z,5.90
2022-08-24T20:52:11.818Z,5.65
2022-08-24T20:54:41.913Z,6.50
2022-08-24T20:57:18.587Z,6.03
2022-08-24T20:59:49.044Z,5.90
2022-08-24T21:02:18.823Z,5.68
2022-08-24T21:04:46.911Z,6.57
2022-08-24T21:07:15.303Z,6.22
2022-08-24T21:09:55.339Z,6.28
2022-08-24T21:12:29.465Z,5.50
2022-08-24T21:15:01.618Z,5.60
2022-08-24T21:17:30.480Z,5.38
2022-08-24T21:20:01.209Z,5.93
2022-08-24T21:22:32.093Z,5.47
2022-08-24T21:25:03.417Z,5.32
2022-08-24T21:27:41.915Z,5.95
2022-08-24T21:30:21.853Z,5.70
2022-08-24T21:33:28.743Z,6.10
2022-08-24T21:35:57.209Z,5.05
2022-08-24T21:38:26.728Z,5.38
2022-08-24T21:41:06.768Z,5.60
2022-08-24T21:43:42.693Z,5.30
2022-08-24T21:46:14.864Z,5.47
2022-08-24T21:48:50.880Z,5.47
2022-08-24T21:51:22.778Z,5.45
2022-08-24T21:54:01.104Z,5.43
2022-08-24T21:56:34.083Z,4.97
2022-08-24T21:59:11.713Z,5.13
2022-08-24T22:01:48.251Z,5.53
2022-08-24T22:04:17.744Z,5.38
2022-08-24T22:06:44.964Z,5.00
2022-08-24T22:09:14.393Z,5.32
2022-08-24T22:11:43.104Z,5.45
2022-08-24T22:14:12.873Z,6.13
2022-08-24T22:16:41.063Z,5.40
2022-08-24T22:19:12.418Z,5.78
2022-08-24T22:21:47.265Z,5.90
2022-08-24T22:24:19.784Z,6.13
2022-08-24T22:26:57.354Z,5.90
2022-08-24T22:29:25.800Z,6.57
2022-08-24T22:31:56.363Z,5.60
2022-08-24T22:34:35.173Z,5.60
2022-08-24T22:37:05.718Z,5.95
2022-08-24T22:39:42.413Z,5.60
2022-08-24T22:42:12.746Z,5.25
2022-08-24T22:44:41.354Z,5.53
2022-08-24T22:47:15.933Z,5.93
2022-08-24T22:49:46.099Z,5.57
2022-08-24T22:52:17.135Z,5.78
2022-08-24T22:54:54.863Z,5.60
2022-08-24T22:57:25.333Z,5.95
2022-08-24T22:59:57.657Z,6.18
2022-08-24T23:02:27.841Z,6.18
2022-08-24T23:04:57.623Z,5.72
2022-08-24T23:07:26.345Z,5.75
2022-08-24T23:09:55.005Z,6.05
2022-08-24T23:12:29.943Z,5.40
2022-08-24T23:15:02.275Z,6.13
2022-08-24T23:17:31.939Z,6.15
2022-08-24T23:20:09.759Z,6.25
2022-08-24T23:22:40.573Z,6.55
2022-08-24T23:25:16.473Z,6.30
2022-08-24T23:27:49.844Z,6.63
2022-08-24T23:30:18.897Z,6.43
2022-08-24T23:32:57.778Z,6.45
2022-08-24T23:35:28.711Z,6.45
2022-08-24T23:37:57.802Z,6.55
2022-08-24T23:40:27.772Z,6.20
2022-08-24T23:42:58.259Z,6.20
2022-08-24T23:45:32.203Z,5.65
2022-08-24T23:48:07.753Z,6.40
2022-08-24T23:50:44.853Z,5.53
2022-08-24T23:53:12.680Z,5.53
2022-08-24T23:55:42.589Z,5.88
2022-08-24T23:58:11.384Z,5.70
